Terminal Aerodrome Forecast
Issued by NWS Wichita, KS

Home | Current Version | Previous Version | Text Only | Print | Product List | Glossary On
Versions: 1 2 3 4 5 6 7 8 9 10 11 12
581
FTUS43 KICT 221134
TAFICT
TAF
KICT 221134Z 2212/2312 VRB05KT P6SM BKN250
     FM221500 19007KT P6SM BKN250
     FM222000 19012KT P6SM SCT250
     FM230300 19005KT P6SM BKN250
     FM231000 23005KT P6SM SCT250=

USA.gov is the U.S. government's official web portal to all federal, state and local government web resources and services.